Time;durP1;ratioP1;P1;durP2;ratioP2;P2;SDS_P1;SDS_P2;PMS_P1;PMS_P2;Temp;Humidity;BMP_temperature;BMP_pressure;BME280_temperature;BME280_humidity;BME280_pressure;Samples;Min_cycle;Max_cycle;Signal;HPM_P1;HPM_P2
2022/10/22 00:01:26;;;;;;;;;;;;;;;19.64;100.00;98414.00;5058329;28;19956;-46
2022/10/22 00:03:51;;;;;;;;;;;;;;;19.89;100.00;98417.31;5056466;28;19970;-45
2022/10/22 00:06:16;;;;;;;;;;;;;;;20.05;100.00;98423.00;5060282;28;19921;-45
2022/10/22 00:08:41;;;;;;;;;;;;;;;20.05;100.00;98418.59;5058759;28;19920;-45
2022/10/22 00:11:08;;;;;;;;;;;;;;;20.36;100.00;98415.25;5059758;28;19927;-44
2022/10/22 00:13:33;;;;;;;;;;;;;;;20.22;100.00;98419.00;5057273;28;20672;-45
2022/10/22 00:15:58;;;;;;;;;;;;;;;19.68;100.00;98425.03;5057613;28;19926;-44
2022/10/22 00:18:23;;;;;;;;;;;;;;;19.20;100.00;98437.41;5058232;28;19924;-46
2022/10/22 00:20:49;;;;;;;;;;;;;;;19.19;100.00;98455.78;5058885;28;19920;-45
2022/10/22 00:23:14;;;;;;;;;;;;;;;19.70;100.00;98454.50;5057728;28;20011;-46
2022/10/22 00:25:39;;;;;;;;;;;;;;;19.75;100.00;98452.38;5058817;28;20017;-45
2022/10/22 00:28:04;;;;;;;;;;;;;;;19.98;100.00;98463.59;5059469;28;19921;-45
2022/10/22 00:30:30;;;;;;;;;;;;;;;19.45;100.00;98466.81;5058887;28;20084;-45
2022/10/22 00:32:55;;;;;;;;;;;;;;;19.60;100.00;98465.66;5056623;28;19955;-45
2022/10/22 00:35:20;;;;;;;;;;;;;;;19.93;100.00;98465.75;5058551;28;19931;-45
2022/10/22 00:37:45;;;;;;;;;;;;;;;20.09;100.00;98470.59;5059345;28;20116;-46
2022/10/22 00:40:11;;;;;;;;;;;;;;;19.76;100.00;98464.50;5058205;28;20017;-45
2022/10/22 00:42:36;;;;;;;;;;;;;;;19.85;100.00;98463.75;5057961;28;19931;-45
2022/10/22 00:45:01;;;;;;;;;;;;;;;18.75;100.00;98472.97;5056809;28;19924;-46
2022/10/22 00:47:27;;;;;;;;;;;;;;;19.00;100.00;98479.84;5057121;28;19987;-45
2022/10/22 00:49:52;;;;;;;;;;;;;;;18.71;100.00;98488.00;5056197;28;20018;-45
2022/10/22 00:52:18;;;;;;;;;;;;;;;19.19;100.00;98477.50;5041605;28;19920;-45
2022/10/22 00:54:43;;;;;;;;;;;;;;;19.42;100.00;98475.72;5055208;28;19936;-46
2022/10/22 00:57:08;;;;;;;;;;;;;;;19.92;100.00;98464.94;5056519;28;20532;-45
2022/10/22 00:59:34;;;;;;;;;;;;;;;19.73;100.00;98465.56;5058340;28;20285;-46
2022/10/22 01:01:59;;;;;;;;;;;;;;;19.49;100.00;98463.03;5054725;28;19920;-45
2022/10/22 01:04:24;;;;;;;;;;;;;;;19.46;100.00;98465.06;5057624;28;19927;-46
2022/10/22 01:06:50;;;;;;;;;;;;;;;19.59;100.00;98458.78;5058034;28;19959;-46
2022/10/22 01:09:17;;;;;;;;;;;;;;;19.73;100.00;98456.88;5058204;28;19958;-45
2022/10/22 01:11:49;;;;;;;;;;;;;;;19.74;100.00;98453.31;5057227;28;19931;-46
2022/10/22 01:14:24;;;;;;;;;;;;;;;19.93;100.00;98455.31;5056497;28;19951;-46
2022/10/22 01:16:58;;;;;;;;;;;;;;;19.71;100.00;98445.75;5057533;28;19931;-46
2022/10/22 01:19:26;;;;;;;;;;;;;;;19.53;100.00;98453.19;5057357;28;19928;-45
2022/10/22 01:21:55;;;;;;;;;;;;;;;19.25;100.00;98451.84;5057059;28;20007;-46
2022/10/22 01:24:23;;;;;;;;;;;;;;;19.42;100.00;98446.19;5056782;28;19920;-45
2022/10/22 01:26:54;;;;;;;;;;;;;;;19.71;100.00;98436.13;5056241;28;20381;-45
2022/10/22 01:29:21;;;;;;;;;;;;;;;19.81;100.00;98436.22;5057747;28;19927;-46
2022/10/22 01:31:48;;;;;;;;;;;;;;;19.71;100.00;98436.13;5055679;28;19913;-45
2022/10/22 01:34:14;;;;;;;;;;;;;;;19.95;100.00;98417.66;5054406;28;20546;-45
2022/10/22 01:36:39;;;;;;;;;;;;;;;20.09;100.00;98419.16;5055579;28;19916;-45
2022/10/22 01:39:04;;;;;;;;;;;;;;;20.01;100.00;98401.47;5055570;28;19929;-45
2022/10/22 01:41:29;;;;;;;;;;;;;;;19.95;100.00;98401.97;5043256;28;20916;-45
2022/10/22 01:43:55;;;;;;;;;;;;;;;20.25;100.00;98393.44;5059146;28;19917;-46
2022/10/22 01:46:21;;;;;;;;;;;;;;;20.06;100.00;98399.31;5061484;28;19926;-45
2022/10/22 01:48:52;;;;;;;;;;;;;;;20.30;100.00;98400.06;5041478;28;20385;-46
2022/10/22 01:51:26;;;;;;;;;;;;;;;20.27;100.00;98395.91;5062995;28;19931;-46
2022/10/22 01:53:59;;;;;;;;;;;;;;;20.04;100.00;98406.44;5060732;28;20446;-46
2022/10/22 01:56:28;;;;;;;;;;;;;;;19.84;100.00;98410.69;5058313;28;19931;-46
2022/10/22 01:58:55;;;;;;;;;;;;;;;20.14;100.00;98414.41;5061420;28;20320;-46
2022/10/22 02:01:53;;;;;;;;;;;;;;;19.94;100.00;98405.53;5060382;28;19920;-45
2022/10/22 02:04:36;;;;;;;;;;;;;;;20.02;100.00;98397.91;5045838;28;20024;-46
2022/10/22 02:07:02;;;;;;;;;;;;;;;20.05;100.00;98396.84;5059840;28;19947;-45
2022/10/22 02:09:27;;;;;;;;;;;;;;;20.14;100.00;98387.41;5058421;28;20919;-46
2022/10/22 02:11:53;;;;;;;;;;;;;;;19.43;100.00;98395.59;5060246;28;19921;-45
2022/10/22 02:14:18;;;;;;;;;;;;;;;18.98;100.00;98406.06;5060881;28;19926;-45
2022/10/22 02:16:44;;;;;;;;;;;;;;;19.04;100.00;98402.13;5059588;28;20390;-46
2022/10/22 02:19:15;;;;;;;;;;;;;;;18.62;100.00;98418.28;5059223;28;19924;-45
2022/10/22 02:21:41;;;;;;;;;;;;;;;18.70;100.00;98423.75;5060160;28;19920;-46
2022/10/22 02:24:06;;;;;;;;;;;;;;;17.95;100.00;98429.25;5060778;28;19920;-45
2022/10/22 02:26:33;;;;;;;;;;;;;;;17.98;100.00;98455.91;5061201;28;19916;-46
2022/10/22 02:29:00;;;;;;;;;;;;;;;18.94;100.00;98446.38;5058405;28;19916;-45
2022/10/22 02:31:30;;;;;;;;;;;;;;;19.07;100.00;98426.22;5060681;28;19981;-46
2022/10/22 02:33:56;;;;;;;;;;;;;;;18.76;100.00;98440.72;5059227;28;19920;-46
2022/10/22 02:36:21;;;;;;;;;;;;;;;19.02;100.00;98444.00;5058713;28;19916;-46
2022/10/22 02:38:46;;;;;;;;;;;;;;;19.80;100.00;98426.72;5042935;28;19928;-46
2022/10/22 02:41:12;;;;;;;;;;;;;;;18.76;100.00;98435.50;5058382;28;19924;-47
2022/10/22 02:43:41;;;;;;;;;;;;;;;18.48;100.00;98454.97;5060048;28;19920;-46
2022/10/22 02:46:06;;;;;;;;;;;;;;;19.08;100.00;98443.53;5058798;28;20591;-46
2022/10/22 02:48:31;;;;;;;;;;;;;;;18.81;100.00;98449.88;5059373;28;19920;-45
2022/10/22 02:50:57;;;;;;;;;;;;;;;18.79;100.00;98464.00;5060032;28;20594;-46
2022/10/22 02:53:22;;;;;;;;;;;;;;;18.91;100.00;98444.81;5058458;28;20419;-45
2022/10/22 02:55:47;;;;;;;;;;;;;;;17.99;100.00;98464.53;5059211;28;20488;-46
2022/10/22 02:58:12;;;;;;;;;;;;;;;17.89;100.00;98473.97;5059176;28;19924;-50
2022/10/22 03:00:38;;;;;;;;;;;;;;;18.35;100.00;98470.66;5061508;28;19924;-46
2022/10/22 03:03:03;;;;;;;;;;;;;;;18.55;100.00;98471.84;5058775;28;19920;-46
2022/10/22 03:05:28;;;;;;;;;;;;;;;18.26;100.00;98476.53;5059619;28;19924;-45
2022/10/22 03:07:53;;;;;;;;;;;;;;;18.87;100.00;98477.31;5057910;28;20447;-46
2022/10/22 03:10:19;;;;;;;;;;;;;;;18.50;100.00;98473.94;5060414;28;20362;-46
2022/10/22 03:12:44;;;;;;;;;;;;;;;18.33;100.00;98477.75;5061091;28;20319;-45
2022/10/22 03:15:09;;;;;;;;;;;;;;;18.44;100.00;98477.00;5060819;28;20307;-46
2022/10/22 03:17:34;;;;;;;;;;;;;;;18.41;100.00;98472.00;5060083;28;20457;-45
2022/10/22 03:20:00;;;;;;;;;;;;;;;18.18;100.00;98479.72;5059120;28;20308;-47
2022/10/22 03:22:28;;;;;;;;;;;;;;;18.50;100.00;98485.22;5060914;28;19990;-46
2022/10/22 03:24:55;;;;;;;;;;;;;;;18.11;100.00;98488.88;5057547;28;19928;-46
2022/10/22 03:27:21;;;;;;;;;;;;;;;17.77;100.00;98481.66;5058809;28;19920;-46
2022/10/22 03:29:46;;;;;;;;;;;;;;;18.26;100.00;98482.59;5059681;28;19994;-46
2022/10/22 03:32:11;;;;;;;;;;;;;;;18.13;100.00;98487.00;5059053;28;20376;-46
2022/10/22 03:34:37;;;;;;;;;;;;;;;17.55;100.00;98504.91;5057081;28;19920;-45
2022/10/22 03:37:02;;;;;;;;;;;;;;;18.14;100.00;98517.34;5059295;28;19948;-45
2022/10/22 03:39:28;;;;;;;;;;;;;;;18.20;100.00;98509.09;5059433;28;20878;-45
2022/10/22 03:41:53;;;;;;;;;;;;;;;18.61;100.00;98502.69;5040511;28;19999;-46
2022/10/22 03:44:18;;;;;;;;;;;;;;;18.87;100.00;98499.97;5059472;28;20050;-46
2022/10/22 03:46:44;;;;;;;;;;;;;;;18.46;100.00;98488.16;5059699;28;19921;-46
2022/10/22 03:49:09;;;;;;;;;;;;;;;18.65;100.00;98485.84;5057909;28;19931;-46
2022/10/22 03:51:34;;;;;;;;;;;;;;;18.26;100.00;98493.00;5060721;28;20711;-46
2022/10/22 03:54:00;;;;;;;;;;;;;;;18.88;100.00;98501.63;5057863;28;19927;-46
2022/10/22 03:56:25;;;;;;;;;;;;;;;19.21;100.00;98486.03;5059554;28;20025;-46
2022/10/22 03:58:50;;;;;;;;;;;;;;;19.16;100.00;98488.19;5055795;28;20723;-45
2022/10/22 04:01:15;;;;;;;;;;;;;;;19.28;100.00;98488.19;5059590;28;20422;-45
2022/10/22 04:03:41;;;;;;;;;;;;;;;19.18;100.00;98490.66;5057398;28;20560;-46
2022/10/22 04:06:11;;;;;;;;;;;;;;;18.17;100.00;98504.91;5058206;28;20423;-45
2022/10/22 04:08:40;;;;;;;;;;;;;;;19.36;100.00;98504.94;5056740;28;20316;-45
2022/10/22 04:11:06;;;;;;;;;;;;;;;19.64;100.00;98492.38;5057903;28;19924;-45
2022/10/22 04:13:31;;;;;;;;;;;;;;;19.04;100.00;98494.28;5059270;28;19916;-47
2022/10/22 04:16:08;;;;;;;;;;;;;;;17.79;100.00;98507.59;5059583;28;19924;-46
2022/10/22 04:18:34;;;;;;;;;;;;;;;18.20;100.00;98524.75;5057246;28;20058;-46
2022/10/22 04:20:59;;;;;;;;;;;;;;;18.32;100.00;98523.88;5056563;28;20026;-46
2022/10/22 04:23:25;;;;;;;;;;;;;;;18.13;100.00;98523.50;5058213;28;19927;-46
2022/10/22 04:25:55;;;;;;;;;;;;;;;17.49;100.00;98537.44;5058582;28;19920;-46
2022/10/22 04:28:21;;;;;;;;;;;;;;;17.85;100.00;98538.44;5058279;28;19923;-47
2022/10/22 04:30:46;;;;;;;;;;;;;;;17.87;100.00;98528.75;5058617;28;19921;-46
2022/10/22 04:33:11;;;;;;;;;;;;;;;18.10;100.00;98534.13;5057914;28;19931;-46
2022/10/22 04:35:37;;;;;;;;;;;;;;;17.87;100.00;98533.97;5058526;28;19931;-46
2022/10/22 04:38:02;;;;;;;;;;;;;;;18.24;100.00;98536.59;5056783;28;19932;-47
2022/10/22 04:40:27;;;;;;;;;;;;;;;17.54;100.00;98527.53;5056326;28;19939;-46
2022/10/22 04:42:53;;;;;;;;;;;;;;;17.57;100.00;98547.31;5056636;28;20011;-45
2022/10/22 04:45:18;;;;;;;;;;;;;;;17.68;100.00;98551.78;5059178;28;19952;-46
2022/10/22 04:47:43;;;;;;;;;;;;;;;17.46;100.00;98549.81;5059150;28;19920;-45
2022/10/22 04:50:09;;;;;;;;;;;;;;;17.70;100.00;98560.34;5057050;28;20110;-45
2022/10/22 04:52:34;;;;;;;;;;;;;;;17.53;100.00;98572.69;5058089;28;19921;-45
2022/10/22 04:54:59;;;;;;;;;;;;;;;17.46;100.00;98581.88;5056561;28;20339;-46
2022/10/22 04:57:28;;;;;;;;;;;;;;;17.39;100.00;98596.22;5058798;28;19926;-47
2022/10/22 04:59:53;;;;;;;;;;;;;;;17.67;100.00;98586.56;5057361;28;19928;-46
2022/10/22 05:02:18;;;;;;;;;;;;;;;17.49;100.00;98607.72;5054835;28;20454;-46
2022/10/22 05:04:43;;;;;;;;;;;;;;;18.14;100.00;98595.53;5058341;28;19986;-47
2022/10/22 05:07:09;;;;;;;;;;;;;;;18.11;100.00;98583.56;5054838;28;19970;-46
2022/10/22 05:09:34;;;;;;;;;;;;;;;18.79;100.00;98577.03;5057232;28;19923;-45
2022/10/22 05:11:59;;;;;;;;;;;;;;;19.37;100.00;98565.81;5058418;28;19920;-46
2022/10/22 05:14:25;;;;;;;;;;;;;;;18.64;100.00;98561.63;5057657;28;20377;-47
2022/10/22 05:16:50;;;;;;;;;;;;;;;19.30;100.00;98568.06;5058536;28;20575;-46
2022/10/22 05:19:25;;;;;;;;;;;;;;;18.83;100.00;98563.75;5057878;28;19917;-46
2022/10/22 05:21:51;;;;;;;;;;;;;;;19.03;100.00;98568.34;5058359;28;19920;-46
2022/10/22 05:24:16;;;;;;;;;;;;;;;19.18;100.00;98563.75;5058347;28;19913;-46
2022/10/22 05:26:41;;;;;;;;;;;;;;;19.11;100.00;98563.38;5057829;28;20395;-46
2022/10/22 05:29:07;;;;;;;;;;;;;;;18.76;100.00;98579.81;5057588;28;19921;-45
2022/10/22 05:31:32;;;;;;;;;;;;;;;18.87;100.00;98586.06;5057969;28;20011;-45
2022/10/22 05:33:57;;;;;;;;;;;;;;;19.04;100.00;98587.44;5059278;28;19921;-46
2022/10/22 05:36:23;;;;;;;;;;;;;;;18.72;100.00;98577.53;5058094;28;20361;-46
2022/10/22 05:38:48;;;;;;;;;;;;;;;18.93;100.00;98577.75;5058709;28;19924;-46
2022/10/22 05:41:15;;;;;;;;;;;;;;;18.61;100.00;98583.53;5055502;28;19970;-46
2022/10/22 05:43:40;;;;;;;;;;;;;;;18.34;100.00;98584.56;5057341;28;20412;-47
2022/10/22 05:46:09;;;;;;;;;;;;;;;18.31;100.00;98603.00;5057686;28;20010;-46
2022/10/22 05:48:35;;;;;;;;;;;;;;;18.35;100.00;98601.84;5055458;28;19920;-46
2022/10/22 05:51:10;;;;;;;;;;;;;;;18.44;100.00;98604.75;5057449;28;19916;-47
2022/10/22 05:53:36;;;;;;;;;;;;;;;18.09;100.00;98615.88;5051523;28;19927;-45
2022/10/22 05:56:02;;;;;;;;;;;;;;;18.47;100.00;98615.78;5056213;28;19959;-46
2022/10/22 05:58:27;;;;;;;;;;;;;;;18.29;100.00;98630.09;5056751;28;20348;-47
2022/10/22 06:00:52;;;;;;;;;;;;;;;18.57;100.00;98622.03;5056623;28;20454;-46
2022/10/22 06:03:18;;;;;;;;;;;;;;;18.80;100.00;98625.63;5056458;28;19924;-46
2022/10/22 06:05:43;;;;;;;;;;;;;;;18.46;100.00;98616.75;5054535;28;19928;-46
2022/10/22 06:08:09;;;;;;;;;;;;;;;18.28;100.00;98629.28;5057291;28;20454;-46
2022/10/22 06:10:34;;;;;;;;;;;;;;;18.27;100.00;98632.84;5056802;28;19916;-47
2022/10/22 06:13:02;;;;;;;;;;;;;;;18.93;100.00;98629.94;5055616;28;20705;-47
2022/10/22 06:15:27;;;;;;;;;;;;;;;19.21;100.00;98620.97;5056650;28;19916;-45
2022/10/22 06:17:52;;;;;;;;;;;;;;;18.58;100.00;98622.84;5056644;28;20579;-47
2022/10/22 06:20:17;;;;;;;;;;;;;;;18.73;100.00;98629.59;5055299;28;19935;-46
2022/10/22 06:22:43;;;;;;;;;;;;;;;18.27;100.00;98648.50;5057341;28;20341;-46
2022/10/22 06:25:08;;;;;;;;;;;;;;;18.31;100.00;98652.53;5056920;28;19936;-46
2022/10/22 06:27:33;;;;;;;;;;;;;;;18.35;100.00;98660.97;5057940;28;19931;-46
2022/10/22 06:29:59;;;;;;;;;;;;;;;18.05;100.00;98651.72;5057930;28;20370;-46
2022/10/22 06:32:24;;;;;;;;;;;;;;;18.11;100.00;98655.66;5061655;28;19969;-46
2022/10/22 06:34:49;;;;;;;;;;;;;;;18.68;100.00;98660.41;5059206;28;19924;-46
2022/10/22 06:37:15;;;;;;;;;;;;;;;18.74;100.00;98653.91;5061469;28;20011;-48
2022/10/22 06:39:40;;;;;;;;;;;;;;;18.95;100.00;98649.81;5060514;28;19956;-47
2022/10/22 06:42:05;;;;;;;;;;;;;;;18.95;100.00;98641.13;5060300;28;19978;-46
2022/10/22 06:44:31;;;;;;;;;;;;;;;18.11;100.00;98650.44;5058839;28;19920;-46
2022/10/22 06:46:56;;;;;;;;;;;;;;;18.57;100.00;98657.72;5060134;28;20003;-46
2022/10/22 06:49:21;;;;;;;;;;;;;;;18.19;100.00;98666.41;5059349;28;19920;-47
2022/10/22 06:51:53;;;;;;;;;;;;;;;18.43;100.00;98670.88;5061981;28;19916;-46
2022/10/22 06:54:19;;;;;;;;;;;;;;;18.97;100.00;98665.31;5059122;28;19967;-46
2022/10/22 06:56:44;;;;;;;;;;;;;;;18.51;100.00;98668.56;5059520;28;20448;-46
2022/10/22 06:59:09;;;;;;;;;;;;;;;19.23;100.00;98668.69;5057436;28;19928;-46
2022/10/22 07:01:34;;;;;;;;;;;;;;;19.32;100.00;98659.34;5060803;28;19962;-46
2022/10/22 07:04:00;;;;;;;;;;;;;;;19.95;100.00;98652.88;5056895;28;19931;-47
2022/10/22 07:06:26;;;;;;;;;;;;;;;19.87;100.00;98647.41;5059688;28;19920;-46
2022/10/22 07:08:52;;;;;;;;;;;;;;;19.51;100.00;98651.81;5059785;28;19959;-46
2022/10/22 07:11:27;;;;;;;;;;;;;;;19.83;100.00;98648.59;5057117;28;19920;-47
2022/10/22 07:13:53;;;;;;;;;;;;;;;19.56;100.00;98654.06;5058758;28;20281;-47
2022/10/22 07:16:18;;;;;;;;;;;;;;;19.59;100.00;98657.28;5061116;28;19917;-47
2022/10/22 07:18:44;;;;;;;;;;;;;;;19.54;100.00;98659.41;5059330;28;19947;-48
2022/10/22 07:21:09;;;;;;;;;;;;;;;20.06;100.00;98670.34;5059591;28;20018;-46
2022/10/22 07:23:35;;;;;;;;;;;;;;;20.01;100.00;98660.25;5059394;28;20977;-47
2022/10/22 07:26:03;;;;;;;;;;;;;;;20.76;100.00;98648.38;5057690;28;20058;-46
2022/10/22 07:28:29;;;;;;;;;;;;;;;20.18;100.00;98637.19;5058428;28;19927;-46
2022/10/22 07:30:54;;;;;;;;;;;;;;;20.44;100.00;98651.69;5058054;28;19916;-46
2022/10/22 07:33:19;;;;;;;;;;;;;;;21.02;100.00;98642.81;5057957;28;19918;-47
2022/10/22 07:35:45;;;;;;;;;;;;;;;20.54;100.00;98649.19;5057735;28;19916;-46
2022/10/22 07:38:10;;;;;;;;;;;;;;;20.56;100.00;98651.69;5059882;28;20399;-46
2022/10/22 07:40:35;;;;;;;;;;;;;;;20.17;100.00;98641.59;5061212;28;19928;-46
2022/10/22 07:43:01;;;;;;;;;;;;;;;20.01;100.00;98672.50;5059248;28;19962;-47
2022/10/22 07:45:26;;;;;;;;;;;;;;;20.42;100.00;98677.16;5060091;28;19927;-46
2022/10/22 07:47:51;;;;;;;;;;;;;;;20.24;100.00;98671.56;5060014;28;19921;-46
2022/10/22 07:50:17;;;;;;;;;;;;;;;20.64;100.00;98665.00;5058415;28;19921;-46
2022/10/22 07:52:42;;;;;;;;;;;;;;;20.74;100.00;98659.91;5059202;28;19973;-46
2022/10/22 07:55:07;;;;;;;;;;;;;;;20.87;100.00;98666.66;5058338;28;19917;-45
2022/10/22 07:57:33;;;;;;;;;;;;;;;20.71;100.00;98667.97;5060160;28;20015;-46
2022/10/22 07:59:59;;;;;;;;;;;;;;;20.94;100.00;98667.00;5060056;28;19931;-46
2022/10/22 08:02:24;;;;;;;;;;;;;;;21.23;100.00;98661.19;5058732;28;20027;-45
2022/10/22 08:04:50;;;;;;;;;;;;;;;21.22;100.00;98662.16;5058099;28;19912;-46
2022/10/22 08:07:16;;;;;;;;;;;;;;;21.20;100.00;98667.50;5056947;28;19947;-46
2022/10/22 08:09:41;;;;;;;;;;;;;;;21.37;100.00;98668.78;5059953;28;19924;-46
2022/10/22 08:12:06;;;;;;;;;;;;;;;21.28;100.00;98670.34;5060454;28;19920;-46
2022/10/22 08:14:31;;;;;;;;;;;;;;;21.58;100.00;98673.22;5059787;28;20413;-46
2022/10/22 08:16:57;;;;;;;;;;;;;;;21.05;100.00;98674.81;5060598;28;19920;-47
2022/10/22 08:19:22;;;;;;;;;;;;;;;21.47;100.00;98681.97;5055295;28;20062;-45
2022/10/22 08:21:47;;;;;;;;;;;;;;;22.07;100.00;98677.78;5058499;28;19921;-45
2022/10/22 08:24:13;;;;;;;;;;;;;;;21.48;100.00;98687.09;5057416;28;19940;-46
2022/10/22 08:26:38;;;;;;;;;;;;;;;22.20;100.00;98689.88;5060800;28;19974;-46
2022/10/22 08:29:04;;;;;;;;;;;;;;;22.38;100.00;98680.47;5058185;28;20387;-46
2022/10/22 08:31:29;;;;;;;;;;;;;;;21.92;100.00;98681.72;5057427;28;19920;-46
2022/10/22 08:33:54;;;;;;;;;;;;;;;21.91;100.00;98677.44;5058653;28;19947;-46
2022/10/22 08:36:19;;;;;;;;;;;;;;;22.34;100.00;98679.88;5057502;28;19920;-46
2022/10/22 08:38:44;;;;;;;;;;;;;;;22.41;100.00;98664.44;5058518;28;19924;-46
2022/10/22 08:41:15;;;;;;;;;;;;;;;22.46;100.00;98671.94;5059234;28;20028;-48
2022/10/22 08:43:52;;;;;;;;;;;;;;;22.18;100.00;98683.94;5059649;28;19931;-46
2022/10/22 08:46:20;;;;;;;;;;;;;;;22.20;100.00;98677.59;5054321;28;19927;-46
2022/10/22 08:48:46;;;;;;;;;;;;;;;22.53;100.00;98673.06;5058263;28;19928;-47
2022/10/22 08:51:14;;;;;;;;;;;;;;;22.87;100.00;98676.19;5059223;28;19944;-45
2022/10/22 08:53:41;;;;;;;;;;;;;;;22.64;100.00;98680.00;5056880;28;21212;-46
2022/10/22 08:56:07;;;;;;;;;;;;;;;21.91;100.00;98695.78;5045702;28;19926;-46
2022/10/22 08:58:37;;;;;;;;;;;;;;;22.20;100.00;98695.13;5058803;28;19925;-47
2022/10/22 09:01:22;;;;;;;;;;;;;;;23.05;100.00;98692.16;5057360;28;20412;-46
2022/10/22 09:03:54;;;;;;;;;;;;;;;22.22;100.00;98694.06;5059331;28;19938;-46
2022/10/22 09:06:21;;;;;;;;;;;;;;;22.19;100.00;98703.94;5058497;28;20492;-46
2022/10/22 09:08:46;;;;;;;;;;;;;;;21.27;100.00;98714.97;5055973;28;19916;-46
2022/10/22 09:11:12;;;;;;;;;;;;;;;22.42;100.00;98710.75;5058376;28;19916;-46
2022/10/22 09:13:37;;;;;;;;;;;;;;;22.29;100.00;98703.06;5059477;28;19923;-46
2022/10/22 09:16:13;;;;;;;;;;;;;;;21.83;100.00;98727.06;5057676;28;19916;-46
2022/10/22 09:18:41;;;;;;;;;;;;;;;21.16;100.00;98728.94;5058648;28;19913;-46
2022/10/22 09:21:26;;;;;;;;;;;;;;;21.10;100.00;98732.88;5058326;28;19920;-46
2022/10/22 09:23:54;;;;;;;;;;;;;;;21.30;100.00;98728.69;5059061;28;19917;-45
2022/10/22 09:26:20;;;;;;;;;;;;;;;21.71;100.00;98732.38;5058542;28;19927;-45
2022/10/22 09:28:48;;;;;;;;;;;;;;;21.76;100.00;98726.75;5058470;28;19920;-46
2022/10/22 09:31:13;;;;;;;;;;;;;;;22.33;100.00;98724.66;5058837;28;19921;-45
2022/10/22 09:33:39;;;;;;;;;;;;;;;21.76;100.00;98736.38;5060073;28;19916;-45
2022/10/22 09:36:06;;;;;;;;;;;;;;;21.92;100.00;98732.38;5057962;28;19928;-46
2022/10/22 09:38:32;;;;;;;;;;;;;;;21.78;100.00;98739.69;5058176;28;19950;-46
2022/10/22 09:40:59;;;;;;;;;;;;;;;22.02;100.00;98736.84;5059307;28;19943;-46
2022/10/22 09:43:24;;;;;;;;;;;;;;;22.04;100.00;98734.94;5058961;28;19916;-45
2022/10/22 09:45:57;;;;;;;;;;;;;;;21.36;100.00;98734.38;5056922;28;19925;-46
2022/10/22 09:48:29;;;;;;;;;;;;;;;21.58;100.00;98736.13;5057653;28;19935;-46
2022/10/22 09:50:56;;;;;;;;;;;;;;;21.89;100.00;98729.16;5058104;28;19916;-46
2022/10/22 09:53:24;;;;;;;;;;;;;;;21.86;100.00;98726.81;5057815;28;19973;-46
2022/10/22 09:55:51;;;;;;;;;;;;;;;22.05;100.00;98732.16;5056150;28;20014;-45
2022/10/22 09:58:16;;;;;;;;;;;;;;;22.46;100.00;98722.59;5056237;28;19920;-46
2022/10/22 10:00:43;;;;;;;;;;;;;;;22.41;100.00;98727.44;5057171;28;20673;-46
2022/10/22 10:03:14;;;;;;;;;;;;;;;22.89;100.00;98726.78;5059372;28;20015;-45
2022/10/22 10:05:40;;;;;;;;;;;;;;;22.51;100.00;98738.81;5060232;28;19917;-45
2022/10/22 10:08:10;;;;;;;;;;;;;;;22.90;100.00;98728.44;5061439;28;19917;-45
2022/10/22 10:11:08;;;;;;;;;;;;;;;22.97;100.00;98729.56;5061990;28;20438;-46
2022/10/22 10:13:37;;;;;;;;;;;;;;;22.21;100.00;98744.00;5048244;28;19928;-46
2022/10/22 10:16:08;;;;;;;;;;;;;;;21.98;100.00;98746.75;5061132;28;20367;-46
2022/10/22 10:18:42;;;;;;;;;;;;;;;21.57;100.00;98752.78;5062106;28;20019;-46
2022/10/22 10:21:14;;;;;;;;;;;;;;;21.83;100.00;98755.91;5062724;28;19916;-46
2022/10/22 10:23:45;;;;;;;;;;;;;;;21.97;100.00;98755.59;5062286;28;19927;-45
2022/10/22 10:26:16;;;;;;;;;;;;;;;22.28;100.00;98764.38;5062899;28;20423;-45
2022/10/22 10:29:03;;;;;;;;;;;;;;;21.50;100.00;98773.41;5062104;28;20011;-45
2022/10/22 10:31:44;;;;;;;;;;;;;;;21.22;100.00;98780.84;5061800;28;19982;-45
2022/10/22 10:34:27;;;;;;;;;;;;;;;20.90;100.00;98788.59;5061081;28;20860;-45
2022/10/22 10:36:59;;;;;;;;;;;;;;;21.53;100.00;98791.53;5062505;28;19923;-45
2022/10/22 10:39:34;;;;;;;;;;;;;;;21.85;100.00;98788.03;5060347;28;20463;-45
2022/10/22 10:42:06;;;;;;;;;;;;;;;21.59;100.00;98795.41;5062724;28;20417;-46
2022/10/22 10:44:35;;;;;;;;;;;;;;;22.27;100.00;98793.38;5061572;28;19931;-46
2022/10/22 10:47:27;;;;;;;;;;;;;;;21.55;100.00;98810.53;5058696;28;19931;-46
2022/10/22 10:49:53;;;;;;;;;;;;;;;21.50;100.00;98812.72;5060789;28;19913;-45
2022/10/22 10:52:27;;;;;;;;;;;;;;;21.46;100.00;98813.91;5060095;28;19923;-46
2022/10/22 10:54:52;;;;;;;;;;;;;;;21.87;100.00;98821.06;5060183;28;19920;-46
2022/10/22 10:57:19;;;;;;;;;;;;;;;21.69;100.00;98812.06;5061436;28;20911;-45
2022/10/22 11:00:11;;;;;;;;;;;;;;;23.10;100.00;98796.81;5059749;28;20052;-45
2022/10/22 11:02:55;;;;;;;;;;;;;;;22.85;100.00;98798.91;5059946;28;19923;-46
2022/10/22 11:05:20;;;;;;;;;;;;;;;22.64;100.00;98801.56;5057344;28;20937;-45
2022/10/22 11:07:47;;;;;;;;;;;;;;;23.00;100.00;98806.47;5057183;28;19963;-45
2022/10/22 11:10:27;;;;;;;;;;;;;;;23.47;100.00;98798.81;5058537;28;19920;-45
2022/10/22 11:12:54;;;;;;;;;;;;;;;22.46;100.00;98803.97;5062798;28;19922;-45
2022/10/22 11:15:24;;;;;;;;;;;;;;;22.54;100.00;98809.41;5059967;28;20007;-45
2022/10/22 11:17:50;;;;;;;;;;;;;;;21.46;100.00;98819.16;5059754;28;20387;-45
2022/10/22 11:20:15;;;;;;;;;;;;;;;21.44;100.00;98827.16;5056683;28;19920;-45
2022/10/22 11:22:41;;;;;;;;;;;;;;;21.61;100.00;98823.16;5060737;28;19916;-45
2022/10/22 11:25:13;;;;;;;;;;;;;;;21.55;100.00;98821.03;5062213;28;20604;-45
2022/10/22 11:27:40;;;;;;;;;;;;;;;22.39;100.00;98818.56;5061606;28;19928;-46
2022/10/22 11:30:12;;;;;;;;;;;;;;;21.16;100.00;98807.50;5058894;28;19927;-45
2022/10/22 11:32:38;;;;;;;;;;;;;;;21.44;100.00;98810.56;5061557;28;19943;-45
2022/10/22 11:35:04;;;;;;;;;;;;;;;22.12;100.00;98806.78;5058879;28;20556;-46
2022/10/22 11:37:33;;;;;;;;;;;;;;;21.32;100.00;98807.13;5059843;28;19920;-45
2022/10/22 11:40:05;;;;;;;;;;;;;;;21.84;100.00;98807.38;5059687;28;20050;-45
2022/10/22 11:42:35;;;;;;;;;;;;;;;21.63;100.00;98805.53;5058664;28;20306;-45
2022/10/22 11:45:02;;;;;;;;;;;;;;;21.28;100.00;98806.53;5060375;28;19920;-45
2022/10/22 11:47:28;;;;;;;;;;;;;;;21.36;100.00;98805.09;5057542;28;19920;-45
2022/10/22 11:49:58;;;;;;;;;;;;;;;21.29;100.00;98804.75;5058688;28;20357;-45
2022/10/22 11:52:37;;;;;;;;;;;;;;;20.92;100.00;98809.44;5058996;28;20293;-45
2022/10/22 11:55:02;;;;;;;;;;;;;;;20.45;100.00;98812.91;5061937;28;19922;-45
2022/10/22 11:57:35;;;;;;;;;;;;;;;20.94;100.00;98807.50;5059429;28;19920;-45
2022/10/22 12:00:01;;;;;;;;;;;;;;;21.68;100.00;98802.53;5059150;28;20381;-45
2022/10/22 12:02:42;;;;;;;;;;;;;;;21.45;100.00;98802.59;5058698;28;19931;-45
2022/10/22 12:05:23;;;;;;;;;;;;;;;21.02;100.00;98811.19;5060871;28;19913;-45
2022/10/22 12:07:56;;;;;;;;;;;;;;;21.05;100.00;98810.13;5059208;28;19928;-45
2022/10/22 12:10:24;;;;;;;;;;;;;;;21.55;100.00;98807.94;5056847;28;19920;-45
2022/10/22 12:12:56;;;;;;;;;;;;;;;21.92;100.00;98802.34;5056095;28;20393;-45
2022/10/22 12:15:25;;;;;;;;;;;;;;;21.36;100.00;98807.72;5056132;28;19927;-45
2022/10/22 12:17:55;;;;;;;;;;;;;;;21.70;100.00;98811.94;5058063;28;19958;-45
2022/10/22 12:20:20;;;;;;;;;;;;;;;22.14;100.00;98810.06;5059028;28;19967;-45
2022/10/22 12:22:45;;;;;;;;;;;;;;;21.51;100.00;98803.91;5058645;28;19952;-45
2022/10/22 12:25:15;;;;;;;;;;;;;;;21.40;100.00;98814.38;5041700;28;19931;-45
2022/10/22 12:27:40;;;;;;;;;;;;;;;20.59;100.00;98817.13;5057532;28;19920;-47
2022/10/22 12:30:16;;;;;;;;;;;;;;;21.16;100.00;98814.53;5058409;28;19920;-45
2022/10/22 12:32:41;;;;;;;;;;;;;;;20.56;100.00;98832.22;5050092;28;20606;-45
2022/10/22 12:35:07;;;;;;;;;;;;;;;21.43;100.00;98815.00;5059369;28;19971;-45
2022/10/22 12:37:36;;;;;;;;;;;;;;;20.83;100.00;98829.31;5057809;28;19978;-45